Time;durP1;ratioP1;P1;durP2;ratioP2;P2;SDS_P1;SDS_P2;PMS_P1;PMS_P2;Temp;Humidity;BMP_temperature;BMP_pressure;BME280_temperature;BME280_humidity;BME280_pressure;Samples;Min_cycle;Max_cycle;Signal;HPM_P1;HPM_P2
2021/12/25 00:00:45;;;;;;;;;;;;;;;3.08;100.00;99263.72;5595412;31;33796;-80
2021/12/25 00:03:51;;;;;;;;;;;;;;;2.98;100.00;99263.63;5596734;31;34215;-80
2021/12/25 00:06:59;;;;;;;;;;;;;;;2.90;100.00;99258.12;5596763;31;33839;-80
2021/12/25 00:10:03;;;;;;;;;;;;;;;2.86;100.00;99259.34;5596042;31;33433;-80
2021/12/25 00:13:05;;;;;;;;;;;;;;;3.05;100.00;99272.66;5596559;31;34131;-80
2021/12/25 00:16:08;;;;;;;;;;;;;;;3.16;100.00;99263.97;5605109;31;33541;-80
2021/12/25 00:19:10;;;;;;;;;;;;;;;3.27;100.00;99268.38;5598763;31;34708;-80
2021/12/25 00:22:13;;;;;;;;;;;;;;;3.45;100.00;99262.63;5597049;31;33810;-80
2021/12/25 00:25:16;;;;;;;;;;;;;;;3.43;100.00;99272.41;5596083;31;33691;-80
2021/12/25 00:31:54;;;;;;;;;;;;;;;3.51;100.00;99281.28;5596860;31;33964;-80
2021/12/25 00:34:58;;;;;;;;;;;;;;;3.51;100.00;99275.25;5596479;31;33628;-80
2021/12/25 00:38:00;;;;;;;;;;;;;;;3.60;100.00;99281.53;5596545;31;33794;-80
2021/12/25 00:41:04;;;;;;;;;;;;;;;3.61;100.00;99277.94;5596634;31;34046;-80
2021/12/25 00:44:07;;;;;;;;;;;;;;;3.58;100.00;99289.47;5596653;31;33779;-80
2021/12/25 00:47:11;;;;;;;;;;;;;;;3.51;100.00;99277.84;5595609;31;33581;-80
2021/12/25 00:50:15;;;;;;;;;;;;;;;3.45;100.00;99283.56;5595721;31;34356;-81
2021/12/25 00:53:18;;;;;;;;;;;;;;;3.36;100.00;99293.78;5596025;31;33887;-81
2021/12/25 00:56:21;;;;;;;;;;;;;;;3.32;100.00;99284.50;5596029;31;34150;-81
2021/12/25 00:59:26;;;;;;;;;;;;;;;3.34;100.00;99280.00;5595260;31;34409;-81
2021/12/25 01:02:28;;;;;;;;;;;;;;;3.29;100.00;99287.38;5596506;31;34191;-81
2021/12/25 01:05:32;;;;;;;;;;;;;;;3.37;100.00;99289.41;5596230;31;33867;-81
2021/12/25 01:08:36;;;;;;;;;;;;;;;3.28;100.00;99296.19;5596245;31;34310;-81
2021/12/25 01:11:41;;;;;;;;;;;;;;;3.27;100.00;99307.59;5595608;31;34120;-81
2021/12/25 01:14:50;;;;;;;;;;;;;;;3.40;100.00;99303.06;5596746;31;33768;-81
2021/12/25 01:50:25;;;;;;;;;;;;;;;3.99;100.00;99326.41;5595765;31;33843;-81
2021/12/25 01:53:33;;;;;;;;;;;;;;;3.98;100.00;99330.81;5595394;31;34412;-81
2021/12/25 01:56:36;;;;;;;;;;;;;;;4.01;100.00;99335.78;5595959;31;33668;-81
2021/12/25 01:59:40;;;;;;;;;;;;;;;3.99;100.00;99327.25;5597262;31;33719;-81
2021/12/25 02:02:44;;;;;;;;;;;;;;;3.84;100.00;99320.59;5594547;31;33763;-81
2021/12/25 02:05:47;;;;;;;;;;;;;;;3.64;100.00;99328.25;5596672;31;33787;-81
2021/12/25 02:08:58;;;;;;;;;;;;;;;3.42;100.00;99333.50;5594944;31;33731;-81
2021/12/25 02:12:00;;;;;;;;;;;;;;;3.26;100.00;99329.44;5595355;31;34269;-81
2021/12/25 02:15:09;;;;;;;;;;;;;;;3.24;100.00;99328.72;5593972;31;34238;-81
2021/12/25 02:18:18;;;;;;;;;;;;;;;3.31;100.00;99326.47;5594488;31;34331;-81
2021/12/25 02:21:27;;;;;;;;;;;;;;;3.39;100.00;99330.16;5595634;31;33707;-81
2021/12/25 02:24:29;;;;;;;;;;;;;;;3.45;100.00;99333.22;5598203;31;34494;-81
2021/12/25 02:27:32;;;;;;;;;;;;;;;3.67;100.00;99327.16;5597842;31;34368;-81
2021/12/25 02:30:35;;;;;;;;;;;;;;;3.98;100.00;99325.56;5598291;31;34352;-81
2021/12/25 02:33:40;;;;;;;;;;;;;;;4.08;100.00;99330.06;5598056;31;33554;-81
2021/12/25 02:36:45;;;;;;;;;;;;;;;4.10;100.00;99326.38;5598042;31;33504;-81
2021/12/25 02:39:48;;;;;;;;;;;;;;;4.21;100.00;99330.75;5596873;31;34187;-81
2021/12/25 02:42:51;;;;;;;;;;;;;;;4.23;100.00;99323.56;5598122;31;33079;-81
2021/12/25 02:46:03;;;;;;;;;;;;;;;4.21;100.00;99325.50;5598253;31;33717;-81
2021/12/25 02:49:12;;;;;;;;;;;;;;;4.24;100.00;99325.25;5597769;31;34400;-81
2021/12/25 02:52:17;;;;;;;;;;;;;;;4.14;100.00;99334.81;5597508;31;33055;-81
2021/12/25 02:55:20;;;;;;;;;;;;;;;4.04;100.00;99326.03;5596243;31;34191;-81
2021/12/25 02:58:23;;;;;;;;;;;;;;;3.95;100.00;99325.81;5597681;31;34717;-81
2021/12/25 03:01:26;;;;;;;;;;;;;;;3.83;100.00;99326.78;5599229;31;33789;-82
2021/12/25 03:04:29;;;;;;;;;;;;;;;3.76;100.00;99328.25;5597762;31;34026;-81
2021/12/25 03:07:32;;;;;;;;;;;;;;;3.79;100.00;99330.59;5597866;31;33464;-81
2021/12/25 03:10:38;;;;;;;;;;;;;;;3.79;100.00;99325.34;5597780;31;34774;-81
2021/12/25 03:13:56;;;;;;;;;;;;;;;3.89;100.00;99299.31;5596918;31;33941;-81
2021/12/25 03:16:59;;;;;;;;;;;;;;;3.79;100.00;99315.75;5597821;31;33879;-81
2021/12/25 03:20:05;;;;;;;;;;;;;;;3.76;100.00;99320.38;5597923;31;33390;-81
2021/12/25 03:23:09;;;;;;;;;;;;;;;3.78;100.00;99323.69;5597967;31;33935;-81
2021/12/25 03:26:11;;;;;;;;;;;;;;;3.65;100.00;99319.47;5596440;31;33805;-81
2021/12/25 03:29:16;;;;;;;;;;;;;;;3.48;100.00;99307.69;5596649;31;34273;-81
2021/12/25 03:32:21;;;;;;;;;;;;;;;3.44;100.00;99306.28;5598921;31;34046;-82
2021/12/25 03:35:23;;;;;;;;;;;;;;;3.35;100.00;99297.34;5596834;31;33639;-81
2021/12/25 03:38:27;;;;;;;;;;;;;;;3.36;100.00;99304.25;5596172;31;33566;-81
2021/12/25 03:41:30;;;;;;;;;;;;;;;3.46;100.00;99313.97;5596051;31;33938;-81
2021/12/25 03:44:35;;;;;;;;;;;;;;;3.50;100.00;99318.03;5596305;31;34545;-81
2021/12/25 03:47:39;;;;;;;;;;;;;;;3.76;100.00;99321.22;5597493;31;34190;-81
2021/12/25 04:00:31;;;;;;;;;;;;;;;3.31;100.00;99343.00;5597065;31;34024;-81
2021/12/25 04:07:50;;;;;;;;;;;;;;;3.37;100.00;99336.47;5571908;31;33346;-81
2021/12/25 04:10:32;;;;;;;;;;;;;;;3.41;100.00;99345.72;5596947;31;34187;-81
2021/12/25 04:13:35;;;;;;;;;;;;;;;3.42;100.00;99344.78;5595924;31;33605;-82
2021/12/25 04:16:37;;;;;;;;;;;;;;;3.43;100.00;99358.69;5596496;31;34015;-81
2021/12/25 04:19:40;;;;;;;;;;;;;;;3.44;100.00;99355.09;5597267;31;34259;-81
2021/12/25 04:22:59;;;;;;;;;;;;;;;3.53;100.00;99341.34;5597561;31;33870;-81
2021/12/25 04:26:03;;;;;;;;;;;;;;;3.77;100.00;99349.03;5596426;31;33600;-82
2021/12/25 05:03:14;;;;;;;;;;;;;;;3.76;100.00;99346.56;5596710;31;33683;-81
2021/12/25 05:06:16;;;;;;;;;;;;;;;3.73;100.00;99352.84;5597155;31;33844;-81
2021/12/25 05:09:20;;;;;;;;;;;;;;;3.70;100.00;99356.53;5597006;31;33509;-81
2021/12/25 05:12:24;;;;;;;;;;;;;;;3.69;100.00;99365.34;5597085;31;33763;-81
2021/12/25 05:15:27;;;;;;;;;;;;;;;3.66;100.00;99362.94;5597003;31;34112;-81
2021/12/25 05:18:30;;;;;;;;;;;;;;;3.65;100.00;99355.22;5596862;31;34627;-81
2021/12/25 05:21:36;;;;;;;;;;;;;;;3.57;100.00;99353.22;5596504;31;34255;-80
2021/12/25 05:24:41;;;;;;;;;;;;;;;3.48;100.00;99341.69;5595021;31;33744;-80
2021/12/25 05:27:46;;;;;;;;;;;;;;;3.44;100.00;99352.50;5596402;31;33343;-80
2021/12/25 05:30:48;;;;;;;;;;;;;;;3.40;100.00;99352.75;5594113;31;33538;-80
2021/12/25 05:33:57;;;;;;;;;;;;;;;3.38;100.00;99362.50;5594630;31;33644;-80
2021/12/25 05:36:59;;;;;;;;;;;;;;;3.32;100.00;99367.34;5594753;31;34028;-80
2021/12/25 05:40:04;;;;;;;;;;;;;;;3.18;100.00;99363.19;5596045;31;35664;-80
2021/12/25 05:43:12;;;;;;;;;;;;;;;3.09;100.00;99370.78;5594538;31;33653;-80
2021/12/25 05:46:18;;;;;;;;;;;;;;;2.93;100.00;99371.06;5595540;31;34157;-80
2021/12/25 05:49:20;;;;;;;;;;;;;;;2.81;100.00;99371.16;5597060;31;33542;-81
2021/12/25 05:52:28;;;;;;;;;;;;;;;2.76;100.00;99359.28;5595489;31;33828;-80
2021/12/25 05:55:35;;;;;;;;;;;;;;;2.67;100.00;99349.53;5594688;31;34377;-80
2021/12/25 05:58:39;;;;;;;;;;;;;;;2.68;100.00;99360.81;5597786;31;33698;-80
2021/12/25 06:01:44;;;;;;;;;;;;;;;2.70;100.00;99369.37;5585596;31;34501;-80
2021/12/25 06:04:47;;;;;;;;;;;;;;;2.58;100.00;99361.50;5597271;31;34565;-80
2021/12/25 06:07:50;;;;;;;;;;;;;;;2.45;100.00;99358.94;5598304;31;33904;-81
2021/12/25 06:10:53;;;;;;;;;;;;;;;2.37;100.00;99357.81;5598261;31;33455;-82
2021/12/25 06:14:09;;;;;;;;;;;;;;;2.27;100.00;99358.50;5598333;31;34004;-82
2021/12/25 06:17:13;;;;;;;;;;;;;;;2.19;100.00;99370.44;5597271;31;33794;-83
2021/12/25 06:20:16;;;;;;;;;;;;;;;2.13;100.00;99377.75;5598144;31;34205;-83
2021/12/25 06:23:23;;;;;;;;;;;;;;;2.08;100.00;99384.25;5598212;31;34568;-83
2021/12/25 06:26:26;;;;;;;;;;;;;;;2.07;100.00;99383.44;5598269;31;33634;-83
2021/12/25 06:29:29;;;;;;;;;;;;;;;2.04;100.00;99388.88;5597411;31;34054;-82
2021/12/25 06:32:36;;;;;;;;;;;;;;;1.93;100.00;99399.22;5597973;31;33216;-81
2021/12/25 06:35:39;;;;;;;;;;;;;;;1.90;100.00;99402.88;5597537;31;33607;-83
2021/12/25 06:38:44;;;;;;;;;;;;;;;1.93;100.00;99400.03;5598071;31;34411;-83
2021/12/25 06:41:49;;;;;;;;;;;;;;;1.95;100.00;99420.81;5598098;31;33595;-82
2021/12/25 06:44:52;;;;;;;;;;;;;;;2.04;100.00;99417.56;5598277;31;34221;-82
2021/12/25 06:47:55;;;;;;;;;;;;;;;2.20;100.00;99419.06;5596311;31;33553;-83
2021/12/25 06:50:59;;;;;;;;;;;;;;;2.26;100.00;99418.66;5597732;31;33687;-83
2021/12/25 06:54:04;;;;;;;;;;;;;;;2.36;100.00;99417.03;5598058;31;33659;-83
2021/12/25 06:57:10;;;;;;;;;;;;;;;2.43;100.00;99420.88;5597354;31;34051;-83
2021/12/25 07:00:14;;;;;;;;;;;;;;;2.56;100.00;99414.75;5597876;31;34376;-83
2021/12/25 07:03:17;;;;;;;;;;;;;;;2.65;100.00;99424.53;5596469;31;33665;-83
2021/12/25 07:06:31;;;;;;;;;;;;;;;2.77;100.00;99436.69;5598095;31;33913;-81
2021/12/25 07:09:34;;;;;;;;;;;;;;;2.88;100.00;99440.28;5595510;31;33745;-84
2021/12/25 07:12:38;;;;;;;;;;;;;;;2.98;100.00;99443.94;5597160;31;34093;-83
2021/12/25 07:15:41;;;;;;;;;;;;;;;3.08;100.00;99441.44;5596583;31;33840;-83
2021/12/25 07:18:45;;;;;;;;;;;;;;;3.21;100.00;99430.88;5598017;31;33925;-84
2021/12/25 07:21:51;;;;;;;;;;;;;;;3.33;100.00;99429.97;5596661;31;33845;-83
2021/12/25 07:24:54;;;;;;;;;;;;;;;3.45;100.00;99432.59;5597195;31;33729;-83
2021/12/25 07:27:57;;;;;;;;;;;;;;;3.57;100.00;99447.38;5599949;31;34282;-84
2021/12/25 07:31:01;;;;;;;;;;;;;;;3.68;100.00;99455.22;5598678;31;34112;-82
2021/12/25 07:34:04;;;;;;;;;;;;;;;3.92;100.00;99449.06;5597606;31;34274;-81
2021/12/25 07:37:07;;;;;;;;;;;;;;;3.97;100.00;99452.16;5596923;31;33965;-82
2021/12/25 07:40:09;;;;;;;;;;;;;;;4.02;100.00;99451.78;5598021;31;33932;-82
2021/12/25 07:43:14;;;;;;;;;;;;;;;4.09;100.00;99460.00;5596190;31;33963;-81
2021/12/25 07:46:26;;;;;;;;;;;;;;;4.10;100.00;99465.09;5596273;31;34102;-82
2021/12/25 07:49:31;;;;;;;;;;;;;;;4.09;100.00;99457.38;5595895;31;33240;-82
2021/12/25 07:52:33;;;;;;;;;;;;;;;4.16;100.00;99461.16;5596467;31;34128;-81
2021/12/25 07:55:36;;;;;;;;;;;;;;;4.14;100.00;99455.22;5598197;31;33380;-82
2021/12/25 07:58:39;;;;;;;;;;;;;;;4.14;100.00;99463.06;5596317;31;33441;-81
2021/12/25 08:01:44;;;;;;;;;;;;;;;4.17;100.00;99460.22;5597079;31;34592;-82
2021/12/25 08:04:47;;;;;;;;;;;;;;;4.21;100.00;99461.66;5597276;31;32879;-82
2021/12/25 08:07:49;;;;;;;;;;;;;;;4.29;100.00;99461.88;5600533;31;34020;-83
2021/12/25 08:10:52;;;;;;;;;;;;;;;4.43;100.00;99466.00;5596952;31;33599;-82
2021/12/25 08:13:54;;;;;;;;;;;;;;;4.32;100.00;99461.63;5596002;31;34300;-81
2021/12/25 08:17:00;;;;;;;;;;;;;;;4.41;100.00;99456.62;5596348;31;33659;-81
2021/12/25 08:20:05;;;;;;;;;;;;;;;4.50;100.00;99470.78;5598154;31;34186;-82
2021/12/25 08:23:17;;;;;;;;;;;;;;;4.62;100.00;99470.62;5597443;31;33674;-81
2021/12/25 08:26:25;;;;;;;;;;;;;;;4.71;100.00;99473.44;5598945;31;33892;-82
2021/12/25 08:29:29;;;;;;;;;;;;;;;4.79;100.00;99471.03;5584565;31;34664;-82
2021/12/25 08:32:36;;;;;;;;;;;;;;;4.84;100.00;99484.59;5596125;31;31350;-81
2021/12/25 08:35:43;;;;;;;;;;;;;;;4.93;100.00;99477.78;5598096;31;31434;-82
2021/12/25 08:38:45;;;;;;;;;;;;;;;5.00;100.00;99478.13;5596495;31;34243;-82
2021/12/25 08:41:50;;;;;;;;;;;;;;;5.00;100.00;99467.63;5596579;31;33741;-82
2021/12/25 08:48:02;;;;;;;;;;;;;;;5.05;100.00;99454.97;5597204;31;33782;-82
2021/12/25 08:51:04;;;;;;;;;;;;;;;5.07;100.00;99450.44;5595684;31;33905;-81
2021/12/25 08:54:09;;;;;;;;;;;;;;;5.10;100.00;99452.81;5598497;31;33323;-82
2021/12/25 08:57:12;;;;;;;;;;;;;;;4.88;100.00;99461.59;5599583;31;34589;-82
2021/12/25 09:00:15;;;;;;;;;;;;;;;4.63;100.00;99456.56;5595780;31;34510;-81
2021/12/25 09:03:19;;;;;;;;;;;;;;;4.61;100.00;99448.00;5595497;31;33625;-81
2021/12/25 09:06:22;;;;;;;;;;;;;;;4.78;100.00;99441.38;5594902;31;34566;-81
2021/12/25 09:09:24;;;;;;;;;;;;;;;4.97;100.00;99441.66;5595202;31;33081;-83
2021/12/25 09:12:28;;;;;;;;;;;;;;;4.73;100.00;99458.44;5594888;31;33568;-83
2021/12/25 09:15:30;;;;;;;;;;;;;;;4.94;100.00;99443.56;5594998;31;34421;-81
2021/12/25 09:18:33;;;;;;;;;;;;;;;5.11;100.00;99449.22;5595638;31;33743;-83
2021/12/25 09:21:41;;;;;;;;;;;;;;;5.30;100.00;99447.69;5595507;31;33721;-82
2021/12/25 09:24:47;;;;;;;;;;;;;;;5.47;100.00;99441.84;5597605;31;33510;-84
2021/12/25 09:27:49;;;;;;;;;;;;;;;5.47;100.00;99441.03;5596400;31;33723;-81
2021/12/25 09:30:54;;;;;;;;;;;;;;;5.62;100.00;99433.66;5596852;31;33534;-82
2021/12/25 09:33:57;;;;;;;;;;;;;;;5.79;100.00;99435.69;5597781;31;34968;-81
2021/12/25 09:37:06;;;;;;;;;;;;;;;5.95;100.00;99427.31;5597149;31;33603;-81
2021/12/25 09:40:10;;;;;;;;;;;;;;;6.03;100.00;99424.88;5597450;31;33193;-81
2021/12/25 09:43:14;;;;;;;;;;;;;;;6.06;100.00;99431.66;5599066;31;34550;-83
2021/12/25 09:46:21;;;;;;;;;;;;;;;5.75;100.00;99429.03;5597002;31;33219;-83
2021/12/25 09:49:30;;;;;;;;;;;;;;;5.60;100.00;99427.69;5597448;31;33758;-83
2021/12/25 09:52:35;;;;;;;;;;;;;;;5.60;100.00;99430.31;5597151;31;33598;-83
2021/12/25 09:55:43;;;;;;;;;;;;;;;5.68;100.00;99426.09;5597399;31;33334;-83
2021/12/25 09:58:47;;;;;;;;;;;;;;;5.71;100.00;99423.22;5597724;31;33534;-83
2021/12/25 10:02:01;;;;;;;;;;;;;;;5.69;100.00;99426.91;5598840;31;33204;-83
2021/12/25 10:05:10;;;;;;;;;;;;;;;5.65;100.00;99409.78;5597730;31;33404;-81
2021/12/25 10:08:23;;;;;;;;;;;;;;;5.56;100.00;99419.25;5598822;31;33966;-81
2021/12/25 10:11:27;;;;;;;;;;;;;;;5.48;100.00;99416.47;5598650;31;34020;-81
2021/12/25 10:14:31;;;;;;;;;;;;;;;5.50;100.00;99433.72;5597139;31;34401;-82
2021/12/25 10:17:47;;;;;;;;;;;;;;;5.65;100.00;99430.78;5597610;31;33489;-81
2021/12/25 10:21:16;;;;;;;;;;;;;;;5.72;100.00;99416.16;5598767;31;34093;-83
2021/12/25 10:24:27;;;;;;;;;;;;;;;5.78;100.00;99409.53;5597307;31;33804;-82
2021/12/25 10:27:29;;;;;;;;;;;;;;;5.87;100.00;99414.84;5599135;31;33522;-82
2021/12/25 10:30:43;;;;;;;;;;;;;;;6.19;100.00;99423.53;5600097;31;33647;-81
2021/12/25 10:33:50;;;;;;;;;;;;;;;6.57;100.00;99431.63;5599956;31;34755;-82
2021/12/25 10:36:53;;;;;;;;;;;;;;;6.75;100.00;99429.97;5597420;31;33869;-83
2021/12/25 10:39:56;;;;;;;;;;;;;;;6.48;100.00;99428.00;5599900;31;34043;-82
2021/12/25 10:43:00;;;;;;;;;;;;;;;6.51;100.00;99430.37;5599773;31;33997;-83
2021/12/25 10:46:03;;;;;;;;;;;;;;;6.57;100.00;99431.63;5597197;31;33597;-83
2021/12/25 10:49:12;;;;;;;;;;;;;;;6.83;100.00;99423.19;5598488;31;33900;-82
2021/12/25 10:52:15;;;;;;;;;;;;;;;6.99;100.00;99415.56;5599071;31;33693;-82
2021/12/25 10:55:25;;;;;;;;;;;;;;;7.18;100.00;99413.87;5599475;31;33509;-82
2021/12/25 10:58:28;;;;;;;;;;;;;;;7.64;100.00;99420.13;5598518;31;34204;-82
2021/12/25 11:01:36;;;;;;;;;;;;;;;7.99;98.94;99413.34;5597987;31;33712;-81
2021/12/25 11:04:39;;;;;;;;;;;;;;;7.69;100.00;99396.00;5599496;31;33867;-82
2021/12/25 11:07:45;;;;;;;;;;;;;;;7.22;100.00;99402.12;5598429;31;33714;-82
2021/12/25 11:11:03;;;;;;;;;;;;;;;7.22;100.00;99394.22;5597830;31;33528;-83
2021/12/25 11:14:07;;;;;;;;;;;;;;;7.56;100.00;99401.59;5598339;31;34213;-82
2021/12/25 11:17:21;;;;;;;;;;;;;;;7.46;100.00;99387.66;5596646;31;33364;-81
2021/12/25 11:20:29;;;;;;;;;;;;;;;7.49;100.00;99390.81;5596518;31;33612;-82
2021/12/25 11:23:34;;;;;;;;;;;;;;;7.52;100.00;99373.91;5597060;31;33925;-82
2021/12/25 11:26:37;;;;;;;;;;;;;;;7.86;100.00;99373.34;5596978;31;33792;-82
2021/12/25 11:29:39;;;;;;;;;;;;;;;8.17;97.83;99365.97;5597040;31;34695;-81
2021/12/25 11:32:47;;;;;;;;;;;;;;;7.86;100.00;99355.75;5596161;31;33698;-81
2021/12/25 11:35:49;;;;;;;;;;;;;;;8.06;99.27;99354.78;5597221;31;33492;-81
2021/12/25 11:38:52;;;;;;;;;;;;;;;7.95;99.63;99343.50;5597354;31;34226;-82
2021/12/25 11:41:59;;;;;;;;;;;;;;;8.09;99.03;99343.97;5596399;31;34073;-81
2021/12/25 11:45:17;;;;;;;;;;;;;;;7.96;99.73;99336.44;5597528;31;33521;-82
2021/12/25 11:48:20;;;;;;;;;;;;;;;8.01;98.96;99332.38;5596354;31;33848;-82
2021/12/25 11:51:29;;;;;;;;;;;;;;;7.62;100.00;99324.69;5596324;31;33316;-82
2021/12/25 11:58:17;;;;;;;;;;;;;;;7.58;100.00;99326.78;5597292;31;33872;-82
2021/12/25 12:01:24;;;;;;;;;;;;;;;7.47;100.00;99320.88;5596420;31;34046;-83
2021/12/25 12:04:29;;;;;;;;;;;;;;;7.46;100.00;99313.97;5597595;31;33994;-82
2021/12/25 12:07:51;;;;;;;;;;;;;;;7.62;100.00;99315.97;5597574;31;34488;-83
2021/12/25 12:11:21;;;;;;;;;;;;;;;7.66;100.00;99310.25;5596297;31;34068;-83
2021/12/25 12:14:27;;;;;;;;;;;;;;;7.84;99.75;99314.72;5596540;31;33296;-83
2021/12/25 12:17:37;;;;;;;;;;;;;;;7.66;100.00;99327.84;5596152;31;33616;-83
2021/12/25 12:20:41;;;;;;;;;;;;;;;7.77;100.00;99329.47;5597915;31;32330;-83
2021/12/25 12:26:59;;;;;;;;;;;;;;;7.92;100.00;99338.53;5602963;31;33532;-83
2021/12/25 12:30:12;;;;;;;;;;;;;;;7.93;100.00;99323.56;5597268;31;33781;-82
2021/12/25 12:33:20;;;;;;;;;;;;;;;8.21;99.88;99326.16;5597009;31;33609;-83
2021/12/25 12:36:23;;;;;;;;;;;;;;;8.21;99.42;99321.69;5597284;31;33430;-83
2021/12/25 12:39:26;;;;;;;;;;;;;;;8.25;98.90;99317.78;5596358;31;33778;-83
2021/12/25 12:42:41;;;;;;;;;;;;;;;8.31;98.75;99322.44;5595921;31;33622;-83
2021/12/25 12:45:51;;;;;;;;;;;;;;;8.18;99.94;99327.25;5595691;31;33629;-83
2021/12/25 12:49:07;;;;;;;;;;;;;;;8.13;100.00;99326.91;5595428;31;33804;-83
2021/12/25 12:52:09;;;;;;;;;;;;;;;7.85;100.00;99332.19;5595646;31;34107;-83
2021/12/25 12:55:32;;;;;;;;;;;;;;;7.73;100.00;99327.12;5595872;31;33924;-83
2021/12/25 12:58:35;;;;;;;;;;;;;;;7.63;100.00;99328.16;5595237;31;33113;-83
2021/12/25 13:01:38;;;;;;;;;;;;;;;7.60;100.00;99318.72;5594973;31;33660;-84
2021/12/25 13:04:41;;;;;;;;;;;;;;;7.56;100.00;99323.47;5595456;31;33969;-83
2021/12/25 13:07:49;;;;;;;;;;;;;;;7.59;100.00;99327.63;5595673;31;33473;-83
2021/12/25 13:11:02;;;;;;;;;;;;;;;7.55;100.00;99327.06;5596267;31;33713;-84
2021/12/25 13:14:19;;;;;;;;;;;;;;;7.59;100.00;99330.25;5589615;31;33693;-82
2021/12/25 13:17:24;;;;;;;;;;;;;;;7.68;100.00;99324.13;5595378;31;33611;-82
2021/12/25 13:20:48;;;;;;;;;;;;;;;7.88;100.00;99313.47;5596386;31;33508;-83
2021/12/25 13:23:56;;;;;;;;;;;;;;;7.92;100.00;99306.94;5596287;31;34095;-83
2021/12/25 13:27:00;;;;;;;;;;;;;;;7.96;100.00;99292.47;5596170;31;33512;-84
2021/12/25 13:30:07;;;;;;;;;;;;;;;7.92;100.00;99295.56;5594975;31;34233;-83
2021/12/25 13:33:12;;;;;;;;;;;;;;;7.87;100.00;99293.38;5595163;31;33289;-83
2021/12/25 13:36:16;;;;;;;;;;;;;;;7.73;100.00;99303.41;5596193;31;33868;-84
2021/12/25 13:39:25;;;;;;;;;;;;;;;7.71;100.00;99297.47;5595237;31;32087;-83
2021/12/25 13:42:28;;;;;;;;;;;;;;;7.68;100.00;99310.09;5597677;31;33725;-84
2021/12/25 13:45:37;;;;;;;;;;;;;;;7.51;100.00;99303.81;5595553;31;33859;-83
2021/12/25 13:48:40;;;;;;;;;;;;;;;7.46;100.00;99308.69;5596214;31;33822;-83
2021/12/25 13:51:42;;;;;;;;;;;;;;;7.27;100.00;99305.16;5595095;31;33413;-83
2021/12/25 13:54:46;;;;;;;;;;;;;;;7.21;100.00;99300.50;5594112;31;33559;-83
2021/12/25 13:57:55;;;;;;;;;;;;;;;7.12;100.00;99289.03;5594868;31;33869;-83
2021/12/25 14:00:57;;;;;;;;;;;;;;;7.01;100.00;99297.94;5595066;31;34142;-83
2021/12/25 14:04:06;;;;;;;;;;;;;;;7.00;100.00;99285.75;5594263;31;33898;-84
2021/12/25 14:07:13;;;;;;;;;;;;;;;6.97;100.00;99299.19;5594651;31;33558;-84
2021/12/25 14:10:18;;;;;;;;;;;;;;;6.90;100.00;99303.34;5594613;31;33803;-83
2021/12/25 14:13:21;;;;;;;;;;;;;;;6.87;100.00;99306.25;5594472;31;33702;-83
2021/12/25 14:16:24;;;;;;;;;;;;;;;6.83;100.00;99302.25;5596165;31;34151;-83
2021/12/25 14:19:29;;;;;;;;;;;;;;;6.75;100.00;99311.69;5597161;31;33761;-84
2021/12/25 14:22:31;;;;;;;;;;;;;;;6.74;100.00;99317.91;5596567;31;33891;-83
2021/12/25 14:25:52;;;;;;;;;;;;;;;6.72;100.00;99322.47;5597993;31;33965;-83
2021/12/25 14:28:55;;;;;;;;;;;;;;;6.69;100.00;99325.41;5596944;31;33967;-83
2021/12/25 14:32:00;;;;;;;;;;;;;;;6.64;100.00;99327.59;5596721;31;33349;-83
2021/12/25 14:35:13;;;;;;;;;;;;;;;6.59;100.00;99335.06;5598309;31;33402;-83
2021/12/25 14:38:19;;;;;;;;;;;;;;;6.55;100.00;99342.41;5598485;31;33603;-83
2021/12/25 14:41:29;;;;;;;;;;;;;;;6.48;100.00;99334.22;5596906;31;33918;-83
2021/12/25 14:44:36;;;;;;;;;;;;;;;6.40;100.00;99334.09;5596315;31;33613;-83
2021/12/25 14:47:46;;;;;;;;;;;;;;;6.34;100.00;99343.38;5595895;31;33853;-83
2021/12/25 14:50:53;;;;;;;;;;;;;;;6.33;100.00;99346.97;5596023;31;33745;-83
2021/12/25 14:53:58;;;;;;;;;;;;;;;6.18;100.00;99353.59;5596909;31;33892;-83
2021/12/25 14:57:01;;;;;;;;;;;;;;;6.07;100.00;99351.09;5597419;31;33765;-83
2021/12/25 15:00:04;;;;;;;;;;;;;;;5.97;100.00;99356.28;5596542;31;33550;-83
2021/12/25 15:03:14;;;;;;;;;;;;;;;5.85;100.00;99359.00;5597380;31;33455;-84
2021/12/25 15:06:18;;;;;;;;;;;;;;;5.83;100.00;99360.94;5596712;31;33699;-83
2021/12/25 15:09:20;;;;;;;;;;;;;;;5.71;100.00;99351.50;5598256;31;33183;-83
2021/12/25 15:12:31;;;;;;;;;;;;;;;5.59;100.00;99342.06;5597514;31;34392;-83
2021/12/25 15:15:33;;;;;;;;;;;;;;;5.31;100.00;99349.69;5598606;31;33908;-84
2021/12/25 15:18:38;;;;;;;;;;;;;;;5.17;100.00;99374.47;5597820;31;33844;-83
2021/12/25 15:21:42;;;;;;;;;;;;;;;5.04;100.00;99385.13;5598766;31;33646;-84
2021/12/25 15:24:56;;;;;;;;;;;;;;;4.95;100.00;99387.56;5597376;31;34441;-83
2021/12/25 15:27:59;;;;;;;;;;;;;;;4.98;100.00;99407.44;5599151;31;33992;-84
2021/12/25 15:31:18;;;;;;;;;;;;;;;4.89;100.00;99414.31;5598253;31;34604;-83
2021/12/25 15:34:20;;;;;;;;;;;;;;;4.69;100.00;99417.69;5596436;31;33868;-83
2021/12/25 15:37:28;;;;;;;;;;;;;;;4.70;100.00;99422.00;5596856;31;33346;-83
2021/12/25 15:40:33;;;;;;;;;;;;;;;4.70;100.00;99435.94;5597688;31;33775;-84
2021/12/25 15:43:37;;;;;;;;;;;;;;;4.53;100.00;99436.47;5596760;31;33598;-83
2021/12/25 15:46:49;;;;;;;;;;;;;;;4.25;100.00;99436.87;5596959;31;33722;-83
2021/12/25 15:49:52;;;;;;;;;;;;;;;4.07;100.00;99433.09;5596382;31;33498;-83
2021/12/25 15:52:55;;;;;;;;;;;;;;;3.99;100.00;99446.78;5597284;31;34051;-83
2021/12/25 15:55:57;;;;;;;;;;;;;;;4.08;100.00;99440.00;5595891;31;33674;-83
2021/12/25 15:59:00;;;;;;;;;;;;;;;4.02;100.00;99447.38;5597092;31;33776;-83
2021/12/25 16:02:06;;;;;;;;;;;;;;;4.07;100.00;99454.03;5596546;31;33755;-84
2021/12/25 16:05:13;;;;;;;;;;;;;;;4.02;100.00;99457.03;5595872;31;33590;-83
2021/12/25 16:08:19;;;;;;;;;;;;;;;4.01;100.00;99464.03;5598213;31;32967;-84
2021/12/25 16:11:25;;;;;;;;;;;;;;;3.91;100.00;99476.16;5597176;31;33584;-83
2021/12/25 16:14:28;;;;;;;;;;;;;;;3.94;100.00;99489.03;5596393;31;33421;-84
2021/12/25 16:17:32;;;;;;;;;;;;;;;3.83;100.00;99494.25;5597463;31;34662;-83
2021/12/25 16:20:35;;;;;;;;;;;;;;;3.81;100.00;99496.16;5599011;31;34585;-83
2021/12/25 16:23:49;;;;;;;;;;;;;;;3.66;100.00;99493.75;5596739;31;33517;-83
2021/12/25 16:26:53;;;;;;;;;;;;;;;3.58;100.00;99498.72;5596807;31;33823;-83
2021/12/25 16:29:56;;;;;;;;;;;;;;;3.58;100.00;99495.28;5596467;31;34202;-83
2021/12/25 16:33:02;;;;;;;;;;;;;;;3.51;100.00;99494.91;5596314;31;34098;-83
2021/12/25 16:36:09;;;;;;;;;;;;;;;3.38;100.00;99506.28;5582699;31;33507;-83
2021/12/25 16:39:12;;;;;;;;;;;;;;;3.41;100.00;99505.22;5596525;31;33170;-83
2021/12/25 16:42:16;;;;;;;;;;;;;;;3.38;100.00;99501.06;5596202;31;33512;-83
2021/12/25 16:45:22;;;;;;;;;;;;;;;3.26;100.00;99504.59;5600382;31;33217;-84
2021/12/25 16:48:25;;;;;;;;;;;;;;;3.20;100.00;99508.50;5596106;31;34271;-83
2021/12/25 16:51:27;;;;;;;;;;;;;;;3.12;100.00;99510.00;5596599;31;33515;-83
2021/12/25 16:54:35;;;;;;;;;;;;;;;3.08;100.00;99510.25;5595669;31;33166;-83
2021/12/25 16:57:37;;;;;;;;;;;;;;;2.97;100.00;99507.59;5597786;31;33510;-83
2021/12/25 17:00:41;;;;;;;;;;;;;;;3.06;100.00;99501.69;5595767;31;33556;-83
2021/12/25 17:03:44;;;;;;;;;;;;;;;3.01;100.00;99503.78;5595511;31;33426;-83
2021/12/25 17:06:47;;;;;;;;;;;;;;;2.99;100.00;99494.41;5596671;31;33755;-82
2021/12/25 17:09:50;;;;;;;;;;;;;;;2.87;100.00;99509.19;5595077;31;33010;-82
2021/12/25 17:12:57;;;;;;;;;;;;;;;2.76;100.00;99513.41;5595763;31;33298;-82
2021/12/25 17:16:00;;;;;;;;;;;;;;;2.76;100.00;99520.41;5595962;31;33424;-82
2021/12/25 17:19:03;;;;;;;;;;;;;;;2.54;100.00;99528.94;5596387;31;33767;-83
2021/12/25 17:22:06;;;;;;;;;;;;;;;2.36;100.00;99531.91;5598144;31;35402;-82
2021/12/25 17:25:13;;;;;;;;;;;;;;;2.33;100.00;99537.34;5600380;31;33856;-82
2021/12/25 17:28:16;;;;;;;;;;;;;;;2.32;100.00;99540.88;5599618;31;34644;-82
2021/12/25 17:31:19;;;;;;;;;;;;;;;2.34;100.00;99559.87;5599210;31;34381;-82
2021/12/25 17:34:21;;;;;;;;;;;;;;;2.25;100.00;99563.12;5598129;31;33818;-82
2021/12/25 17:37:24;;;;;;;;;;;;;;;1.96;100.00;99563.38;5598865;31;33689;-83
2021/12/25 17:40:32;;;;;;;;;;;;;;;1.94;100.00;99571.28;5596702;31;33798;-82